Latest Weather Observations for Armidale Airport

IDN60801

Issued at 6:35 pm EST Friday 25 July 2014 (issued every 30 minutes, with the page automatically refreshed every 10 minutes)

About weather observations | Map of weather stations | Latest weather observations for NSW | Other Formats
Station Details ID: 056238 Name: ARMIDALE AIRPORT AWS Lat: -30.53 Lon: 151.62 Height: 1079.0 m
Data from the previous 72 hours. | See also: Recent months for locations in New South Wales
Date/Time
EST
Temp
°C
App
Temp
°C
Dew
Point
Rel
Hum
%
Delta-T
°C
Wind Press
QNH
hPa
Press
MSL
hPa
Rain
since 9 am
mm
Dir
 
Spd
km/h
Gust
km/h
Spd
kts
Gust
kts
25/06:30pm 11.0 8.9 6.6 74 2.2 WSW 7 9 4 5 1026.5 - 0.0
25/06:00pm 10.2 8.1 5.6 73 2.2 W 6 6 3 3 1026.1 1026.5 0.0
25/05:30pm 12.1 9.9 5.5 64 3.3 W 6 11 3 6 1025.8 - 0.0
25/05:00pm 13.4 11.2 6.0 61 3.7 WSW 7 11 4 6 1025.5 1025.9 0.0
25/04:30pm 13.6 9.8 5.7 59 4.0 WNW 15 20 8 11 1025.5 - 0.0
25/04:00pm 14.2 9.6 5.8 57 4.2 WNW 19 24 10 13 1025.4 1025.7 0.0
25/03:30pm 16.3 11.5 4.4 45 5.9 WNW 19 24 10 13 1025.0 - 0.0
25/03:00pm 17.6 13.0 5.5 45 6.2 NW 19 26 10 14 1024.8 1025.2 0.0
25/02:30pm 16.7 11.6 4.1 43 6.3 NW 20 28 11 15 1024.7 - 0.0
25/02:00pm 17.0 12.1 4.3 43 6.3 WNW 19 28 10 15 1024.8 1025.2 0.0
25/01:30pm 16.9 12.0 4.9 45 6.1 NW 20 30 11 16 1025.0 - 0.0
25/01:00pm 16.5 10.7 4.2 44 6.1 WNW 24 32 13 17 1025.2 1025.6 0.0
25/12:30pm 16.9 11.3 5.5 47 5.8 NW 24 30 13 16 1025.5 - 0.0
25/12:00pm 16.1 9.9 4.5 46 5.7 WNW 26 35 14 19 1026.1 1026.5 0.0
25/11:30am 16.1 11.0 6.0 51 5.2 WNW 22 32 12 17 1026.5 - 0.0
25/11:00am 15.3 9.5 6.1 54 4.7 NW 26 35 14 19 1026.7 1027.1 0.0
25/10:30am 15.0 8.8 6.3 56 4.5 NW 28 37 15 20 1027.0 - 0.0
25/10:00am 14.9 9.3 7.0 59 4.1 NW 26 35 14 19 1027.0 1027.4 0.0
25/09:30am 13.3 7.2 6.6 64 3.4 NW 28 35 15 19 1027.0 - 0.0
25/09:00am 12.5 7.2 6.8 68 2.9 NW 24 33 13 18 1027.0 1027.4 0.0
25/08:30am 11.5 7.0 6.2 70 2.6 NNW 19 26 10 14 1026.7 - 0.0
25/08:00am 10.4 6.3 6.2 75 2.1 NW 17 28 9 15 1026.6 1027.0 0.0
25/07:30am 8.7 5.2 5.4 80 1.6 NW 13 24 7 13 1026.1 - 0.0
25/07:00am 7.6 4.2 4.0 78 1.7 NW 11 15 6 8 1025.8 1026.2 0.0
25/06:30am 8.4 4.3 4.6 77 1.8 NNW 15 19 8 10 1025.1 - 0.0
25/06:00am 8.5 4.4 4.3 75 2.0 NNW 15 20 8 11 1024.9 1025.3 0.0
25/05:30am 9.2 4.4 4.4 72 2.3 NNW 19 24 10 13 1024.9 - 0.0
25/05:00am 9.5 4.6 4.3 70 2.4 NNW 19 26 10 14 1024.6 1024.9 0.0
25/04:30am 9.9 4.9 4.7 70 2.5 NNW 20 32 11 17 1024.4 - 0.0
25/04:00am 9.2 4.8 4.6 73 2.2 NNW 17 24 9 13 1024.5 1024.8 0.0
25/03:30am 10.1 5.9 5.5 73 2.2 NNW 17 24 9 13 1024.4 - 0.0
25/03:00am 8.5 5.7 5.3 80 1.5 NNW 9 13 5 7 1024.6 1024.9 0.0
25/02:30am 8.6 6.3 5.5 81 1.5 NNW 7 11 4 6 1024.5 - 0.0
25/02:00am 9.1 5.3 5.8 80 1.6 N 15 20 8 11 1024.4 1024.7 0.0
25/01:30am 6.7 4.1 6.3 97 0.2 N 9 17 5 9 1024.2 - 0.0
25/01:00am 5.3 2.5 5.0 98 0.1 ENE 9 11 5 6 1024.1 1024.5 0.0
25/12:30am 4.3 0.9 4.0 98 0.1 ENE 11 13 6 7 1024.0 - 0.0
25/12:00am 4.8 1.5 4.5 98 0.1 ENE 11 11 6 6 1023.9 1024.3 0.0
 
Date/Time
EST
Temp
°C
App
Temp
°C
Dew
Point
Rel
Hum
%
Delta-T
°C
Wind Press
QNH
hPa
Press
MSL
hPa
Rain
since 9 am
mm
Dir
 
Spd
km/h
Gust
km/h
Spd
kts
Gust
kts
24/11:30pm 4.9 1.2 4.6 98 0.1 ENE 13 15 7 8 1023.9 - 0.0
24/11:00pm 5.2 1.1 4.6 96 0.3 E 15 17 8 9 1024.0 1024.4 0.0
24/10:30pm 4.9 1.2 4.3 96 0.3 E 13 15 7 8 1023.9 - 0.0
24/10:00pm 4.9 1.4 3.7 92 0.5 ENE 11 15 6 8 1024.0 1024.4 0.0
24/09:30pm 4.7 0.7 3.0 89 0.7 ENE 13 15 7 8 1023.8 - 0.0
24/09:00pm 5.5 1.5 3.0 84 1.1 NE 13 15 7 8 1023.8 1024.1 0.0
24/08:30pm 6.0 2.3 2.6 79 1.5 NE 11 13 6 7 1023.5 - 0.0
24/08:00pm 8.8 5.7 3.8 71 2.3 N 9 11 5 6 1023.6 1023.9 0.0
24/07:30pm 9.1 6.1 3.9 70 2.4 N 9 13 5 7 1023.4 - 0.0
24/07:00pm 10.1 7.0 3.8 65 2.9 N 9 11 5 6 1023.4 1023.7 0.0
24/06:30pm 10.3 7.2 3.8 64 3.1 NNW 9 11 5 6 1023.1 - 0.0
24/06:00pm 9.7 6.6 3.4 65 2.9 NNW 9 9 5 5 1022.9 1023.2 0.0
24/05:30pm 10.4 7.3 3.7 63 3.1 NNW 9 11 5 6 1022.6 - 0.0
24/05:00pm 11.4 7.6 3.7 59 3.6 NNW 13 17 7 9 1022.2 1022.5 0.0
24/04:30pm 12.4 8.1 3.1 53 4.4 WNW 15 17 8 9 1022.0 - 0.0
24/04:00pm 13.6 10.1 3.7 51 4.7 NNW 11 17 6 9 1021.6 1021.9 0.0
24/03:30pm 13.9 10.2 4.2 52 4.7 NNW 13 17 7 9 1021.6 - 0.0
24/03:00pm 13.4 8.9 4.0 53 4.5 NW 17 22 9 12 1021.6 1021.9 0.0
24/02:30pm 14.2 9.1 3.9 50 5.0 NW 20 32 11 17 1021.6 - 0.0
24/02:00pm 13.5 8.9 3.8 52 4.7 WNW 17 20 9 11 1021.6 1021.9 0.0
24/01:30pm 13.1 7.5 3.7 53 4.5 NW 22 32 12 17 1021.7 - 0.0
24/01:00pm 12.5 7.4 4.0 56 4.1 NW 20 28 11 15 1021.9 1022.2 0.0
24/12:30pm 12.3 6.9 4.3 58 3.9 NW 22 30 12 16 1022.4 - 0.0
24/12:00pm 12.1 6.2 4.1 58 3.8 NW 24 32 13 17 1022.6 1022.9 0.0
24/11:30am 12.5 7.6 5.0 60 3.7 NNW 20 28 11 15 1023.2 - 0.0
24/11:00am 12.2 7.7 4.4 59 3.8 NNW 17 22 9 12 1023.6 1023.9 0.0
24/10:30am 10.3 8.5 5.5 72 2.3 N 4 7 2 4 1024.0 - 0.0
24/10:00am 8.8 7.4 5.7 81 1.5 E 2 6 1 3 1024.1 1024.5 0.0
24/09:30am 7.9 5.6 5.7 86 1.1 NNE 7 9 4 5 1023.8 - 0.0
24/09:00am 7.3 4.2 5.6 89 0.8 NE 11 13 6 7 1023.4 1023.7 0.0
24/08:30am 6.8 3.3 5.4 91 0.7 NE 13 17 7 9 1022.9 - 0.0
24/08:00am 6.2 2.4 5.6 96 0.3 ENE 15 19 8 10 1022.5 1022.8 0.0
24/07:30am 5.1 1.5 4.8 98 0.1 NE 13 17 7 9 1022.1 - 0.0
24/07:00am 5.3 1.3 4.7 96 0.3 NE 15 19 8 10 1022.0 1022.3 0.0
24/06:30am 5.1 1.1 4.8 98 0.1 ENE 15 17 8 9 1022.1 - 0.0
24/06:00am 5.2 1.2 4.9 98 0.1 NE 15 19 8 10 1021.8 1022.1 0.0
24/05:30am 4.9 0.8 4.6 98 0.1 ENE 15 17 8 9 1021.6 - 0.0
24/05:00am 4.4 0.6 4.1 98 0.1 ENE 13 15 7 8 1021.3 1021.5 0.0
24/04:30am 5.1 1.1 4.8 98 0.1 ENE 15 17 8 9 1021.1 - 0.0
24/04:00am 4.9 0.5 4.6 98 0.1 ENE 17 17 9 9 1021.4 1021.6 0.0
24/03:30am 4.6 0.5 4.3 98 0.1 ENE 15 15 8 8 1021.5 - 0.0
24/03:00am 5.2 1.2 4.9 98 0.1 ENE 15 17 8 9 1021.5 1021.8 0.0
24/02:30am 5.7 1.8 5.3 97 0.2 ENE 15 19 8 10 1021.5 - 0.0
24/02:00am 5.6 1.7 5.3 98 0.1 ENE 15 19 8 10 1021.6 1021.9 0.0
24/01:30am 5.3 1.3 5.0 98 0.1 ENE 15 17 8 9 1021.7 - 0.0
24/01:00am 5.6 1.7 5.3 98 0.1 ENE 15 17 8 9 1021.8 1022.1 0.0
24/12:30am 5.4 1.1 5.1 98 0.1 ENE 17 20 9 11 1022.0 - 0.0
24/12:00am 5.9 1.3 5.5 97 0.2 ENE 19 24 10 13 1022.1 1022.4 0.0
 
Date/Time
EST
Temp
°C
App
Temp
°C
Dew
Point
Rel
Hum
%
Delta-T
°C
Wind Press
QNH
hPa
Press
MSL
hPa
Rain
since 9 am
mm
Dir
 
Spd
km/h
Gust
km/h
Spd
kts
Gust
kts
23/11:30pm 6.0 1.7 5.1 94 0.4 ENE 17 20 9 11 1022.5 - 0.0
23/11:00pm 6.1 1.7 4.7 91 0.6 E 17 20 9 11 1022.7 1023.0 0.0
23/10:30pm 6.1 1.5 3.9 86 1.0 E 17 22 9 12 1022.7 - 0.0
23/10:00pm 6.2 1.6 3.7 84 1.1 E 17 20 9 11 1022.8 1023.1 0.0
23/09:30pm 6.6 2.0 3.8 82 1.3 E 17 20 9 11 1022.8 - 0.0
23/09:00pm 6.5 2.3 3.8 83 1.2 E 15 20 8 11 1022.9 1023.2 0.0
23/08:30pm 5.8 1.5 3.3 84 1.1 E 15 19 8 10 1022.8 - 0.0
23/08:00pm 4.7 0.9 1.9 82 1.2 ENE 11 15 6 8 1022.6 1022.9 0.0
23/07:30pm 5.6 1.5 2.1 78 1.5 ENE 13 15 7 8 1022.5 - 0.0
23/07:00pm 6.4 1.9 1.9 73 1.9 E 15 19 8 10 1022.1 1022.4 0.0
23/06:30pm 7.2 2.9 1.3 66 2.5 E 13 19 7 10 1022.0 - 0.0
23/06:00pm 8.3 4.1 1.5 62 3.0 ESE 13 15 7 8 1021.9 1022.2 0.0
23/05:30pm 8.3 4.3 0.5 58 3.3 ESE 11 13 6 7 1021.7 - 0.0
23/05:00pm 9.1 5.1 0.6 55 3.7 ESE 11 13 6 7 1021.7 1022.0 0.0
23/04:30pm 10.8 6.8 0.2 48 4.6 ESE 11 15 6 8 1021.5 - 0.0
23/04:00pm 11.6 7.6 0.7 47 4.8 ESE 11 15 6 8 1021.1 1021.4 0.0
23/03:30pm 11.8 7.4 0.3 45 5.1 SE 13 17 7 9 1020.9 - 0.0
23/03:00pm 12.0 7.7 0.8 46 5.0 E 13 19 7 10 1021.0 1021.3 0.0
23/02:30pm 11.8 7.9 1.4 49 4.7 SSE 11 15 6 8 1021.0 - 0.0
23/02:00pm 11.9 8.4 1.0 47 4.9 S 9 15 5 8 1021.3 1021.5 0.0
23/01:30pm 11.7 8.7 2.2 52 4.4 ESE 7 13 4 7 1021.6 - 0.0
23/01:00pm 11.2 8.3 1.7 52 4.3 SSW 6 13 3 7 1021.8 1022.1 0.0
23/12:30pm 11.3 8.3 1.8 52 4.3 S 7 15 4 8 1022.4 - 0.0
23/12:00pm 11.0 8.3 2.6 56 3.8 SSW 6 9 3 5 1022.9 1023.2 0.0
23/11:30am 10.4 7.5 2.5 58 3.6 ENE 7 13 4 7 1023.7 - 0.0
23/11:00am 9.8 6.4 3.8 66 2.8 NE 11 15 6 8 1024.1 1024.5 0.0
23/10:30am 9.0 5.3 4.2 72 2.3 ENE 13 17 7 9 1024.2 - 0.0
23/10:00am 8.2 4.1 4.6 78 1.7 ENE 15 20 8 11 1024.6 1024.9 0.0
23/09:30am 7.2 3.6 5.0 86 1.0 NE 13 19 7 10 1024.8 - 0.0
23/09:15am 6.8 2.9 5.4 91 0.7 ENE 15 20 8 11 1024.7 - 0.0
23/09:00am 6.1 2.7 5.8 98 0.1 NE 13 19 7 10 1024.6 1024.9 0.4
23/08:30am 5.2 0.9 5.1 99 0.0 ENE 17 20 9 11 1024.2 - 0.4
23/08:21am 4.5 0.0 4.4 99 0.0 ENE 17 20 9 11 1024.1 - 0.4
23/08:09am 4.2 0.1 4.1 99 0.0 ENE 15 20 8 11 1023.9 - 0.4
23/08:00am 4.3 -0.2 4.2 99 0.0 ENE 17 22 9 12 1023.9 1024.3 0.4
23/07:30am 4.2 0.1 4.1 99 0.0 ENE 15 20 8 11 1023.6 - 0.4
23/07:23am 4.1 -0.1 4.0 99 0.0 ENE 15 22 8 12 1023.5 - 0.4
23/07:19am 4.2 0.1 4.1 99 0.0 E 15 22 8 12 1023.4 - 0.4
23/07:00am 4.1 -0.4 4.0 99 0.0 E 17 20 9 11 1023.2 1023.6 0.4
23/06:30am 4.1 -0.1 4.0 99 0.0 E 15 20 8 11 1023.1 - 0.4
23/06:11am 4.2 -0.4 3.9 98 0.1 E 17 20 9 11 1023.0 - 0.4
23/06:00am 4.6 0.1 4.3 98 0.1 E 17 22 9 12 1022.8 1023.1 0.4
23/05:30am 4.8 0.7 4.5 98 0.1 E 15 20 8 11 1022.5 - 0.4
23/05:00am 4.4 0.6 4.1 98 0.1 E 13 19 7 10 1022.1 1022.4 0.4
23/04:30am 4.5 0.8 4.2 98 0.1 E 13 17 7 9 1022.0 - 0.4
23/04:00am 5.0 1.0 4.7 98 0.1 E 15 19 8 10 1021.9 1022.2 0.4
23/03:30am 5.2 1.6 4.9 98 0.1 E 13 19 7 10 1022.0 - 0.4
23/03:00am 5.1 1.1 4.8 98 0.1 E 15 19 8 10 1022.1 1022.4 0.4
23/02:30am 5.2 0.8 4.9 98 0.1 E 17 20 9 11 1022.2 - 0.4
23/02:00am 5.3 0.9 5.0 98 0.1 E 17 24 9 13 1022.2 1022.5 0.4
23/01:30am 5.1 1.9 5.0 99 0.0 E 11 13 6 7 1022.5 - 0.4
23/01:00am 4.8 1.9 4.7 99 0.0 E 9 13 5 7 1022.7 1023.0 0.4
23/12:52am 4.3 0.9 4.2 99 0.0 E 11 11 6 6 1022.6 - 0.4
23/12:30am 4.0 0.2 3.7 98 0.1 ENE 13 15 7 8 1022.7 - 0.4
23/12:00am 5.5 2.4 5.4 99 0.0 E 11 15 6 8 1022.9 1023.2 0.4
 
Date/Time
EST
Temp
°C
App
Temp
°C
Dew
Point
Rel
Hum
%
Delta-T
°C
Wind Press
QNH
hPa
Press
MSL
hPa
Rain
since 9 am
mm
Dir
 
Spd
km/h
Gust
km/h
Spd
kts
Gust
kts
22/11:30pm 5.4 1.9 5.3 99 0.0 E 13 15 7 8 1022.9 - 0.4
22/11:23pm 5.4 1.9 5.3 99 0.0 E 13 15 7 8 1023.0 - 0.4
22/11:14pm 5.1 1.9 5.0 99 0.0 E 11 15 6 8 1023.0 - 0.4
22/11:00pm 5.6 2.1 5.3 98 0.1 ENE 13 17 7 9 1022.9 1023.2 0.4
22/10:30pm 5.8 2.7 5.7 99 0.0 E 11 19 6 10 1023.4 - 0.4
22/10:09pm 5.0 1.8 4.9 99 0.0 ENE 11 13 6 7 1023.1 - 0.4
22/10:00pm 5.4 2.2 5.3 99 0.0 ENE 11 15 6 8 1023.0 1023.3 0.4
22/09:32pm 5.6 1.7 5.5 99 0.0 E 15 17 8 9 1022.9 - 0.4
22/09:30pm 5.6 1.7 5.5 99 0.0 ENE 15 17 8 9 1022.9 - 0.4
22/09:25pm 5.5 2.0 5.4 99 0.0 ENE 13 17 7 9 1022.9 - 0.4
22/09:00pm 4.0 0.5 3.7 98 0.1 ENE 11 13 6 7 1023.1 1023.5 0.4
22/08:30pm 6.1 3.1 5.8 98 0.1 E 11 13 6 7 1023.0 - 0.4
22/08:14pm 6.3 2.9 6.0 98 0.1 ESE 13 17 7 9 1023.1 - 0.4
22/08:00pm 6.7 3.4 6.3 97 0.2 E 13 19 7 10 1023.0 1023.3 0.4
22/07:30pm 6.2 2.7 5.5 95 0.3 E 13 17 7 9 1022.6 - 0.4
22/07:00pm 7.2 4.5 5.7 90 0.7 ESE 9 11 5 6 1022.8 1023.1 0.4

Other Formats:

Comma delimited format used in spreadsheet applications
http://www.bom.gov.au/fwo/IDN60801/IDN60801.95773.axf

JavaScript Object Notation format (JSON) in row-major order
http://www.bom.gov.au/fwo/IDN60801/IDN60801.95773.json